createdAt,value
2023-01-29T00:01:51.966Z,80.30
2023-01-29T00:04:18.825Z,80.30
2023-01-29T00:06:45.469Z,80.30
2023-01-29T00:09:13.446Z,80.20
2023-01-29T00:11:40.337Z,80.40
2023-01-29T00:14:07.046Z,80.90
2023-01-29T00:16:33.706Z,81.50
2023-01-29T00:19:01.947Z,81.20
2023-01-29T00:21:31.006Z,81.40
2023-01-29T00:23:58.655Z,81.90
2023-01-29T00:26:25.975Z,81.60
2023-01-29T00:28:52.584Z,81.60
2023-01-29T00:31:24.342Z,81.60
2023-01-29T00:33:51.770Z,81.90
2023-01-29T00:36:20.316Z,81.70
2023-01-29T00:38:54.557Z,82.30
2023-01-29T00:41:40.957Z,82.30
2023-01-29T00:44:26.547Z,82.00
2023-01-29T00:46:53.315Z,82.00
2023-01-29T00:49:20.395Z,81.70
2023-01-29T00:52:09.940Z,81.60
2023-01-29T00:54:37.175Z,81.40
2023-01-29T00:57:04.540Z,81.40
2023-01-29T00:59:31.330Z,81.30
2023-01-29T01:02:16.980Z,81.60
2023-01-29T01:04:43.675Z,81.90
2023-01-29T01:09:55.875Z,81.40
2023-01-29T01:12:22.967Z,81.40
2023-01-29T01:14:50.063Z,81.30
2023-01-29T01:17:17.218Z,81.10
2023-01-29T01:19:44.208Z,81.40
2023-01-29T01:22:11.164Z,81.30
2023-01-29T01:24:38.353Z,82.00
2023-01-29T01:27:05.255Z,81.20
2023-01-29T01:29:32.691Z,81.20
2023-01-29T01:31:59.603Z,81.20
2023-01-29T01:34:29.586Z,81.10
2023-01-29T01:36:56.606Z,80.90
2023-01-29T01:39:24.589Z,81.50
2023-01-29T01:41:53.597Z,81.20
2023-01-29T01:44:51.503Z,81.20
2023-01-29T01:47:31.490Z,81.00
2023-01-29T01:50:02.880Z,81.00
2023-01-29T01:52:31.684Z,81.00
2023-01-29T01:54:59.574Z,81.20
2023-01-29T01:57:27.832Z,81.00
2023-01-29T02:00:03.868Z,81.00
2023-01-29T02:02:49.203Z,81.10
2023-01-29T02:05:34.576Z,81.10
2023-01-29T02:08:19.769Z,81.10
2023-01-29T02:10:48.818Z,81.10
2023-01-29T02:13:17.769Z,81.00
2023-01-29T02:15:48.960Z,81.00
2023-01-29T02:18:21.403Z,81.00
2023-01-29T02:21:03.474Z,81.00
2023-01-29T02:23:50.317Z,81.00
2023-01-29T02:26:33.140Z,81.00
2023-01-29T02:29:25.107Z,81.00
2023-01-29T02:32:09.361Z,81.10
2023-01-29T02:35:05.279Z,80.90
2023-01-29T02:37:42.434Z,81.00
2023-01-29T02:40:30.452Z,80.90
2023-01-29T02:43:24.327Z,80.90
2023-01-29T02:46:16.879Z,80.90
2023-01-29T02:48:54.501Z,81.00
2023-01-29T02:52:03.437Z,80.90
2023-01-29T02:55:02.979Z,81.00
2023-01-29T02:57:35.107Z,81.00
2023-01-29T03:00:08.740Z,81.20
2023-01-29T03:02:38.372Z,80.90
2023-01-29T03:05:12.651Z,81.20
2023-01-29T03:07:46.500Z,81.20
2023-01-29T03:10:21.685Z,81.20
2023-01-29T03:12:59.604Z,81.00
2023-01-29T03:15:38.592Z,80.90
2023-01-29T03:18:09.631Z,80.90
2023-01-29T03:20:47.940Z,80.60
2023-01-29T03:23:24.023Z,81.00
2023-01-29T03:26:13.390Z,81.30
2023-01-29T03:29:01.862Z,81.10
2023-01-29T03:31:48.229Z,81.10
2023-01-29T03:34:28.419Z,81.00
2023-01-29T03:36:59.996Z,81.00
2023-01-29T03:39:29.593Z,81.20
2023-01-29T03:42:04.933Z,81.20
2023-01-29T03:44:53.689Z,81.00
2023-01-29T03:47:29.558Z,80.80
2023-01-29T03:50:08.105Z,81.00
2023-01-29T03:52:48.888Z,80.80
2023-01-29T03:55:18.508Z,81.00
2023-01-29T03:57:51.268Z,81.00
2023-01-29T04:00:23.293Z,81.20
2023-01-29T04:02:56.725Z,81.30
2023-01-29T04:05:28.012Z,81.50
2023-01-29T04:08:01.484Z,81.80
2023-01-29T04:10:29.939Z,81.60
2023-01-29T04:13:01.545Z,81.60
2023-01-29T04:15:31.919Z,81.50
2023-01-29T04:17:58.766Z,81.70
2023-01-29T04:20:25.682Z,81.70
2023-01-29T04:22:53.035Z,81.80
2023-01-29T04:25:28.834Z,81.70
2023-01-29T04:28:08.600Z,81.70
2023-01-29T04:30:55.714Z,82.00
2023-01-29T04:33:35.886Z,82.20
2023-01-29T04:36:17.496Z,82.40
2023-01-29T04:38:50.145Z,82.30
2023-01-29T04:41:22.275Z,82.40
2023-01-29T04:44:11.078Z,82.70
2023-01-29T04:46:49.583Z,82.60
2023-01-29T04:49:34.467Z,82.80
2023-01-29T04:52:20.403Z,82.60
2023-01-29T04:55:03.139Z,82.40
2023-01-29T04:58:03.408Z,82.60
2023-01-29T05:00:49.250Z,82.60
2023-01-29T05:03:16.849Z,82.40
2023-01-29T05:05:47.948Z,82.40
2023-01-29T05:08:22.836Z,82.50
2023-01-29T05:10:51.929Z,82.60
2023-01-29T05:13:20.932Z,82.50
2023-01-29T05:15:52.916Z,82.30
2023-01-29T05:18:19.758Z,82.30
2023-01-29T05:20:47.852Z,82.20
2023-01-29T05:23:19.395Z,82.30
2023-01-29T05:25:47.211Z,82.10
2023-01-29T05:28:16.323Z,81.60
2023-01-29T05:30:45.714Z,82.30
2023-01-29T05:33:21.419Z,82.30
2023-01-29T05:35:48.663Z,82.30
2023-01-29T05:38:16.327Z,82.10
2023-01-29T05:40:43.399Z,82.00
2023-01-29T05:43:22.235Z,81.40
2023-01-29T05:46:00.383Z,81.80
2023-01-29T05:48:28.954Z,81.90
2023-01-29T05:51:01.093Z,81.60
2023-01-29T05:53:28.989Z,81.80
2023-01-29T05:55:57.227Z,81.50
2023-01-29T05:58:23.960Z,81.20
2023-01-29T06:00:50.638Z,81.50
2023-01-29T06:03:17.292Z,81.10
2023-01-29T06:05:44.162Z,81.60
2023-01-29T06:08:10.832Z,81.70
2023-01-29T06:10:37.507Z,81.70
2023-01-29T06:13:04.227Z,81.30
2023-01-29T06:15:30.907Z,81.20
2023-01-29T06:17:57.849Z,81.00
2023-01-29T06:20:25.178Z,80.80
2023-01-29T06:22:51.860Z,81.00
2023-01-29T06:25:18.539Z,81.10
2023-01-29T06:27:45.278Z,80.80
2023-01-29T06:30:12.432Z,80.40
2023-01-29T06:32:39.025Z,81.10
2023-01-29T06:35:06.144Z,81.10
2023-01-29T06:37:32.748Z,80.80
2023-01-29T06:39:59.393Z,81.20
2023-01-29T06:42:28.022Z,81.20
2023-01-29T06:44:57.912Z,81.30
2023-01-29T06:47:25.081Z,81.10
2023-01-29T06:49:52.180Z,81.00
2023-01-29T06:52:18.849Z,81.60
2023-01-29T06:54:45.563Z,81.30
2023-01-29T06:57:12.223Z,81.30
2023-01-29T06:59:38.823Z,81.70
2023-01-29T07:02:05.595Z,81.80
2023-01-29T07:04:32.387Z,81.60
2023-01-29T07:07:01.881Z,81.30
2023-01-29T07:09:28.635Z,81.50
2023-01-29T07:11:55.307Z,81.60
2023-01-29T07:14:21.899Z,81.30
2023-01-29T07:16:48.633Z,81.20
2023-01-29T07:19:15.425Z,81.20
2023-01-29T07:21:42.020Z,81.30
2023-01-29T07:24:08.963Z,81.40
2023-01-29T07:26:35.692Z,81.50
2023-01-29T07:29:04.384Z,81.40
2023-01-29T07:31:31.270Z,81.40
2023-01-29T07:33:58.107Z,81.20
2023-01-29T07:36:24.906Z,81.20
2023-01-29T07:38:51.924Z,81.00
2023-01-29T07:41:18.778Z,81.00
2023-01-29T07:43:45.458Z,81.50
2023-01-29T07:46:12.195Z,81.30
2023-01-29T07:48:38.831Z,81.10
2023-01-29T07:51:05.878Z,81.60
2023-01-29T07:53:32.774Z,81.60
2023-01-29T07:55:59.458Z,82.60
2023-01-29T07:58:26.153Z,82.90
2023-01-29T08:00:52.856Z,82.20
2023-01-29T08:03:20.718Z,81.90
2023-01-29T08:05:47.684Z,81.60
2023-01-29T08:08:14.668Z,82.10
2023-01-29T08:10:41.865Z,82.10
2023-01-29T08:13:09.560Z,82.10
2023-01-29T08:15:38.775Z,82.00
2023-01-29T08:18:06.722Z,81.90
2023-01-29T08:20:33.518Z,81.70
2023-01-29T08:23:01.891Z,81.80
2023-01-29T08:25:29.731Z,81.50
2023-01-29T08:27:57.834Z,81.00
2023-01-29T08:30:26.004Z,81.40
2023-01-29T08:32:52.823Z,81.10
2023-01-29T08:35:20.036Z,81.40
2023-01-29T08:37:59.826Z,81.70
2023-01-29T08:40:31.764Z,81.50
2023-01-29T08:43:04.136Z,81.20
2023-01-29T08:45:35.073Z,81.60
2023-01-29T08:48:02.505Z,81.40
2023-01-29T08:50:30.721Z,81.10
2023-01-29T08:52:59.025Z,81.30
2023-01-29T08:55:26.505Z,80.70
2023-01-29T08:57:53.215Z,80.40
2023-01-29T09:00:20.311Z,80.90
2023-01-29T09:02:47.044Z,80.70
2023-01-29T09:05:13.816Z,80.00
2023-01-29T09:07:40.488Z,80.90
2023-01-29T09:10:08.064Z,80.40
2023-01-29T09:12:34.689Z,80.80
2023-01-29T09:15:01.304Z,80.60
2023-01-29T09:17:27.984Z,80.50
2023-01-29T09:19:54.675Z,80.70
2023-01-29T09:22:21.284Z,80.70
2023-01-29T09:24:47.947Z,80.40
2023-01-29T09:27:14.609Z,80.50
2023-01-29T09:29:41.280Z,80.50
2023-01-29T09:32:07.961Z,81.10
2023-01-29T09:34:35.301Z,80.40
2023-01-29T09:37:01.975Z,80.20
2023-01-29T09:39:28.647Z,80.80
2023-01-29T09:42:16.671Z,80.30
2023-01-29T09:45:06.776Z,80.30
2023-01-29T09:47:36.428Z,80.00
2023-01-29T09:50:18.424Z,79.70
2023-01-29T09:53:10.196Z,79.70
2023-01-29T09:55:46.248Z,80.10
2023-01-29T09:58:24.827Z,80.00
2023-01-29T10:01:07.090Z,80.10
2023-01-29T10:03:59.704Z,79.50
2023-01-29T10:06:35.639Z,79.90
2023-01-29T10:09:32.140Z,79.50
2023-01-29T10:12:11.724Z,79.80
2023-01-29T10:14:58.041Z,79.70
2023-01-29T10:17:56.715Z,79.50
2023-01-29T10:21:08.198Z,79.40
2023-01-29T10:23:38.584Z,79.50
2023-01-29T10:26:05.203Z,79.90
2023-01-29T10:28:38.095Z,79.50
2023-01-29T10:31:09.578Z,79.70
2023-01-29T10:33:49.658Z,78.40
2023-01-29T10:36:38.487Z,79.20
2023-01-29T10:39:05.155Z,79.00
2023-01-29T10:41:45.694Z,79.50
2023-01-29T10:44:35.825Z,79.40
2023-01-29T10:47:20.872Z,79.80
2023-01-29T10:50:19.522Z,79.80
2023-01-29T10:53:10.787Z,79.10
2023-01-29T10:55:53.354Z,79.80
2023-01-29T10:58:28.137Z,79.50
2023-01-29T11:00:54.789Z,79.10
2023-01-29T11:03:28.694Z,78.90
2023-01-29T11:06:13.861Z,79.30
2023-01-29T11:08:55.107Z,79.80
2023-01-29T11:11:25.899Z,79.70
2023-01-29T11:14:15.824Z,80.20
2023-01-29T11:16:45.669Z,80.00
2023-01-29T11:19:12.881Z,81.10
2023-01-29T11:21:59.712Z,80.20
2023-01-29T11:24:26.897Z,80.10
2023-01-29T11:26:57.514Z,80.00
2023-01-29T11:29:33.835Z,80.00
2023-01-29T11:32:03.919Z,80.20
2023-01-29T11:34:31.030Z,80.30
2023-01-29T11:37:00.346Z,81.00
2023-01-29T11:39:29.180Z,80.90
2023-01-29T11:41:58.863Z,80.60
2023-01-29T11:44:41.632Z,80.70
2023-01-29T11:47:29.621Z,80.60
2023-01-29T11:50:01.434Z,81.40
2023-01-29T11:52:37.523Z,81.60
2023-01-29T11:55:26.387Z,81.80
2023-01-29T11:58:01.594Z,82.10
2023-01-29T12:00:32.410Z,81.90
2023-01-29T12:03:24.610Z,82.00
2023-01-29T12:05:58.324Z,81.90
2023-01-29T12:08:26.019Z,81.40
2023-01-29T12:11:08.271Z,81.50
2023-01-29T12:13:36.083Z,81.90
2023-01-29T12:16:20.162Z,81.60
2023-01-29T12:18:55.045Z,81.80
2023-01-29T12:21:37.294Z,81.70
2023-01-29T12:24:06.878Z,82.00
2023-01-29T12:26:38.344Z,82.10
2023-01-29T12:29:19.298Z,82.50
2023-01-29T12:31:57.489Z,83.00
2023-01-29T12:34:33.186Z,82.40
2023-01-29T12:37:10.762Z,82.20
2023-01-29T12:39:37.566Z,82.30
2023-01-29T12:42:20.220Z,82.20
2023-01-29T12:44:51.912Z,81.90
2023-01-29T12:47:27.597Z,82.70
2023-01-29T12:49:57.792Z,82.90
2023-01-29T12:52:39.383Z,83.20
2023-01-29T12:55:26.741Z,83.20
2023-01-29T12:58:01.830Z,83.90
2023-01-29T13:00:29.901Z,83.80
2023-01-29T13:03:17.244Z,83.70
2023-01-29T13:05:51.724Z,83.70
2023-01-29T13:08:29.185Z,83.80
2023-01-29T13:10:58.433Z,83.90
2023-01-29T13:13:35.172Z,83.50
2023-01-29T13:16:05.433Z,83.50
2023-01-29T13:18:40.883Z,83.20
2023-01-29T13:21:16.076Z,83.40
2023-01-29T13:23:56.602Z,83.60
2023-01-29T13:26:24.134Z,83.50
2023-01-29T13:28:52.273Z,83.30
2023-01-29T13:31:40.701Z,82.70
2023-01-29T13:34:31.662Z,82.60
2023-01-29T13:37:01.488Z,83.40
2023-01-29T13:39:39.633Z,82.90
2023-01-29T13:42:17.615Z,82.90
2023-01-29T13:44:52.891Z,82.60
2023-01-29T13:47:25.513Z,82.70
2023-01-29T13:50:21.893Z,82.60
2023-01-29T13:52:55.984Z,83.00
2023-01-29T13:55:31.128Z,83.10
2023-01-29T13:58:18.483Z,83.10
2023-01-29T14:00:45.098Z,82.70
2023-01-29T14:03:11.725Z,83.00
2023-01-29T14:05:39.987Z,83.20
2023-01-29T14:08:09.391Z,83.40
2023-01-29T14:10:37.652Z,83.20
2023-01-29T14:13:04.298Z,82.90
2023-01-29T14:15:32.379Z,83.20
2023-01-29T14:18:12.548Z,83.30
2023-01-29T14:20:46.112Z,82.90
2023-01-29T14:23:36.004Z,83.50
2023-01-29T14:26:05.445Z,83.20
2023-01-29T14:28:34.578Z,83.50
2023-01-29T14:31:01.671Z,83.80
2023-01-29T14:33:42.383Z,84.30
2023-01-29T14:36:14.474Z,83.40
2023-01-29T14:38:47.777Z,83.40
2023-01-29T14:41:30.817Z,83.50
2023-01-29T14:44:34.891Z,83.60
2023-01-29T14:47:01.620Z,83.80
2023-01-29T14:49:58.437Z,83.40
2023-01-29T14:52:39.430Z,83.50
2023-01-29T14:55:15.610Z,83.60
2023-01-29T14:57:43.014Z,83.80
2023-01-29T15:00:24.635Z,83.70
2023-01-29T15:03:01.403Z,83.30
2023-01-29T15:05:35.836Z,83.80
2023-01-29T15:08:49.631Z,83.50
2023-01-29T15:11:35.402Z,83.80
2023-01-29T15:14:24.059Z,84.30
2023-01-29T15:17:23.226Z,84.50
2023-01-29T15:19:49.946Z,84.70
2023-01-29T15:22:21.696Z,84.80
2023-01-29T15:25:07.355Z,85.20
2023-01-29T15:27:34.314Z,84.80
2023-01-29T15:30:04.137Z,84.50
2023-01-29T15:32:37.242Z,84.50
2023-01-29T15:35:49.923Z,85.30
2023-01-29T15:38:22.242Z,84.90
2023-01-29T15:40:57.280Z,85.00
2023-01-29T15:43:30.445Z,85.00
2023-01-29T15:46:04.076Z,86.00
2023-01-29T15:48:37.530Z,86.00
2023-01-29T15:51:07.881Z,86.10
2023-01-29T15:53:44.248Z,86.60
2023-01-29T15:56:12.707Z,86.20
2023-01-29T15:58:40.118Z,86.90
2023-01-29T16:01:07.074Z,86.70
2023-01-29T16:03:34.770Z,86.70
2023-01-29T16:06:02.172Z,86.90
2023-01-29T16:08:29.241Z,88.60
2023-01-29T16:10:59.171Z,88.80
2023-01-29T16:13:29.208Z,89.80
2023-01-29T16:16:04.486Z,90.00
2023-01-29T16:18:38.300Z,89.80
2023-01-29T16:21:14.132Z,90.10
2023-01-29T16:23:45.430Z,90.00
2023-01-29T16:26:17.319Z,90.00
2023-01-29T16:28:44.389Z,90.10
2023-01-29T16:31:13.962Z,90.00
2023-01-29T16:33:43.290Z,90.20
2023-01-29T16:36:22.374Z,90.30
2023-01-29T16:38:55.504Z,90.20
2023-01-29T16:41:22.132Z,90.30
2023-01-29T16:43:49.844Z,90.50
2023-01-29T16:46:20.257Z,90.50
2023-01-29T16:48:47.772Z,90.50
2023-01-29T16:51:24.371Z,90.30
2023-01-29T16:54:02.461Z,90.40
2023-01-29T16:56:32.007Z,90.80
2023-01-29T16:58:59.449Z,90.80
2023-01-29T17:01:28.544Z,90.90
2023-01-29T17:04:07.775Z,90.90
2023-01-29T17:06:35.507Z,90.60
2023-01-29T17:09:03.641Z,90.80
2023-01-29T17:11:40.161Z,91.10
2023-01-29T17:14:08.852Z,91.00
2023-01-29T17:16:48.721Z,90.90
2023-01-29T17:19:20.697Z,90.80
2023-01-29T17:21:47.467Z,90.60
2023-01-29T17:24:14.176Z,90.80
2023-01-29T17:26:41.124Z,90.50
2023-01-29T17:29:13.825Z,90.30
2023-01-29T17:31:40.575Z,90.40
2023-01-29T17:34:14.877Z,90.40
2023-01-29T17:36:42.829Z,90.20
2023-01-29T17:39:20.721Z,90.30
2023-01-29T17:41:58.698Z,90.20
2023-01-29T17:44:28.054Z,90.10
2023-01-29T17:46:54.701Z,90.00
2023-01-29T17:49:26.099Z,90.00
2023-01-29T17:51:54.338Z,90.10
2023-01-29T17:54:22.225Z,90.00
2023-01-29T17:56:50.297Z,90.10
2023-01-29T17:59:27.672Z,90.10
2023-01-29T18:01:54.446Z,90.30
2023-01-29T18:04:21.566Z,90.10
2023-01-29T18:06:50.161Z,90.30
2023-01-29T18:09:20.275Z,89.90
2023-01-29T18:11:48.188Z,90.00
2023-01-29T18:14:15.371Z,90.30
2023-01-29T18:16:43.661Z,90.30
2023-01-29T18:19:31.001Z,90.40
2023-01-29T18:21:57.866Z,90.30
2023-01-29T18:24:26.483Z,90.20
2023-01-29T18:26:53.216Z,90.70
2023-01-29T18:29:19.933Z,90.70
2023-01-29T18:31:49.166Z,90.80
2023-01-29T18:34:15.948Z,90.60
2023-01-29T18:36:46.888Z,90.50
2023-01-29T18:39:16.501Z,90.50
2023-01-29T18:41:43.159Z,90.30
2023-01-29T18:44:10.748Z,90.40
2023-01-29T18:46:37.389Z,90.20
2023-01-29T18:49:05.070Z,90.70
2023-01-29T18:51:31.782Z,90.60
2023-01-29T18:53:58.439Z,90.40
2023-01-29T18:56:25.178Z,90.50
2023-01-29T18:58:55.939Z,90.90
2023-01-29T19:01:23.522Z,90.50
2023-01-29T19:03:50.293Z,90.30
2023-01-29T19:06:16.917Z,90.30
2023-01-29T19:08:43.973Z,90.50
2023-01-29T19:11:12.392Z,90.60
2023-01-29T19:13:40.376Z,90.90
2023-01-29T19:16:12.489Z,90.70
2023-01-29T19:18:39.515Z,90.80
2023-01-29T19:21:08.836Z,91.00
2023-01-29T19:23:35.498Z,91.10
2023-01-29T19:26:02.218Z,91.10
2023-01-29T19:28:28.891Z,90.90
2023-01-29T19:30:58.018Z,90.70
2023-01-29T19:33:25.497Z,90.60
2023-01-29T19:35:52.201Z,90.80
2023-01-29T19:38:21.201Z,91.00
2023-01-29T19:40:48.566Z,91.20
2023-01-29T19:43:17.476Z,91.00
2023-01-29T19:45:49.624Z,91.20
2023-01-29T19:48:21.431Z,91.10
2023-01-29T19:51:12.035Z,91.00
2023-01-29T19:53:40.783Z,91.00
2023-01-29T19:56:09.649Z,90.90
2023-01-29T19:58:36.950Z,91.00
2023-01-29T20:01:06.708Z,91.10
2023-01-29T20:03:34.078Z,91.20
2023-01-29T20:06:05.843Z,91.30
2023-01-29T20:08:33.193Z,91.10
2023-01-29T20:10:59.834Z,91.10
2023-01-29T20:13:26.728Z,91.20
2023-01-29T20:15:54.061Z,91.00
2023-01-29T20:18:20.876Z,91.20
2023-01-29T20:20:50.280Z,91.20
2023-01-29T20:23:31.767Z,91.30
2023-01-29T20:26:03.726Z,91.10
2023-01-29T20:28:30.378Z,91.20
2023-01-29T20:30:58.165Z,91.00
2023-01-29T20:33:25.762Z,91.10
2023-01-29T20:35:57.659Z,91.10
2023-01-29T20:38:30.150Z,91.50
2023-01-29T20:41:17.643Z,91.80
2023-01-29T20:43:45.157Z,91.80
2023-01-29T20:46:12.059Z,91.70
2023-01-29T20:48:39.202Z,91.80
2023-01-29T20:51:07.903Z,92.20
2023-01-29T20:53:34.903Z,92.00
2023-01-29T20:56:04.193Z,92.40
2023-01-29T20:58:31.043Z,92.40
2023-01-29T21:00:57.928Z,92.80
2023-01-29T21:03:24.620Z,92.90
2023-01-29T21:05:52.173Z,93.00
2023-01-29T21:08:18.915Z,93.30
2023-01-29T21:10:45.767Z,93.50
2023-01-29T21:13:12.688Z,93.60
2023-01-29T21:15:39.325Z,93.30
2023-01-29T21:18:06.635Z,93.30
2023-01-29T21:20:33.277Z,93.70
2023-01-29T21:22:59.921Z,93.70
2023-01-29T21:25:26.545Z,93.60
2023-01-29T21:27:53.206Z,93.90
2023-01-29T21:30:20.285Z,93.90
2023-01-29T21:32:47.201Z,93.60
2023-01-29T21:35:14.844Z,93.70
2023-01-29T21:37:41.866Z,94.00
2023-01-29T21:40:09.352Z,94.00
2023-01-29T21:42:54.694Z,93.90
2023-01-29T21:45:21.321Z,93.60
2023-01-29T21:47:47.933Z,93.80
2023-01-29T21:50:14.838Z,93.70
2023-01-29T21:52:41.668Z,93.40
2023-01-29T21:55:08.685Z,93.50
2023-01-29T21:57:35.362Z,93.80
2023-01-29T22:00:02.035Z,94.00
2023-01-29T22:02:30.855Z,94.00
2023-01-29T22:05:16.478Z,93.80
2023-01-29T22:07:45.157Z,94.00
2023-01-29T22:10:12.376Z,93.70
2023-01-29T22:12:39.891Z,93.80
2023-01-29T22:15:08.468Z,93.90
2023-01-29T22:17:35.375Z,94.50
2023-01-29T22:20:02.211Z,94.40
2023-01-29T22:22:28.870Z,94.60
2023-01-29T22:24:57.558Z,94.80
2023-01-29T22:27:24.530Z,94.40
2023-01-29T22:29:51.240Z,94.70
2023-01-29T22:32:17.946Z,95.10
2023-01-29T22:34:44.596Z,94.80
2023-01-29T22:37:11.229Z,94.50
2023-01-29T22:39:37.841Z,94.60
2023-01-29T22:42:04.563Z,95.00
2023-01-29T22:44:31.169Z,95.20
2023-01-29T22:46:57.769Z,95.50
2023-01-29T22:49:25.183Z,95.40
2023-01-29T22:52:09.885Z,95.10
2023-01-29T22:54:41.051Z,95.20
2023-01-29T22:57:10.338Z,95.50
2023-01-29T22:59:37.322Z,95.60
2023-01-29T23:02:04.380Z,96.00
2023-01-29T23:04:31.127Z,95.40
2023-01-29T23:06:58.349Z,95.50
2023-01-29T23:09:25.187Z,95.80
2023-01-29T23:11:51.835Z,96.10
2023-01-29T23:14:18.569Z,96.40
2023-01-29T23:16:45.278Z,96.30
2023-01-29T23:19:12.249Z,96.40
2023-01-29T23:21:39.795Z,96.70
2023-01-29T23:24:07.843Z,96.60
2023-01-29T23:26:53.182Z,96.40
2023-01-29T23:29:20.360Z,96.00
2023-01-29T23:31:47.139Z,96.20
2023-01-29T23:34:14.235Z,96.30
2023-01-29T23:36:41.096Z,96.10
2023-01-29T23:39:07.844Z,96.10
2023-01-29T23:41:34.582Z,96.20
2023-01-29T23:44:01.197Z,96.10
2023-01-29T23:46:27.837Z,96.20
2023-01-29T23:48:54.505Z,96.10
2023-01-29T23:51:21.159Z,96.20
2023-01-29T23:53:47.804Z,96.20
2023-01-29T23:56:14.385Z,96.00
2023-01-29T23:58:41.050Z,96.10
